sensor_id;sensor_type;location;lat;lon;timestamp;pressure;altitude;pressure_sealevel;temperature;humidity
40245;BME280;25963;42.694;23.600;2022-07-03T00:01:38;95620.56;;;24.75;70.92
40245;BME280;25963;42.694;23.600;2022-07-03T00:04:04;95622.00;;;24.87;69.93
40245;BME280;25963;42.694;23.600;2022-07-03T00:06:33;95612.88;;;24.82;70.03
40245;BME280;25963;42.694;23.600;2022-07-03T00:09:00;95612.50;;;24.89;69.15
40245;BME280;25963;42.694;23.600;2022-07-03T00:11:27;95612.00;;;24.87;69.07
40245;BME280;25963;42.694;23.600;2022-07-03T00:13:53;95607.31;;;24.93;68.94
40245;BME280;25963;42.694;23.600;2022-07-03T00:16:18;95617.00;;;24.47;70.56
40245;BME280;25963;42.694;23.600;2022-07-03T00:18:43;95618.72;;;24.38;71.29
40245;BME280;25963;42.694;23.600;2022-07-03T00:21:11;95619.25;;;24.59;70.53
40245;BME280;25963;42.694;23.600;2022-07-03T00:23:43;95615.50;;;24.55;70.55
40245;BME280;25963;42.694;23.600;2022-07-03T00:26:10;95600.38;;;24.73;69.47
40245;BME280;25963;42.694;23.600;2022-07-03T00:28:37;95605.94;;;24.95;68.43
40245;BME280;25963;42.694;23.600;2022-07-03T00:31:02;95610.81;;;24.93;68.58
40245;BME280;25963;42.694;23.600;2022-07-03T00:33:30;95605.38;;;24.66;69.55
40245;BME280;25963;42.694;23.600;2022-07-03T00:35:57;95611.69;;;24.42;70.31
40245;BME280;25963;42.694;23.600;2022-07-03T00:38:23;95608.22;;;24.55;70.72
40245;BME280;25963;42.694;23.600;2022-07-03T00:40:49;95601.25;;;24.17;70.63
40245;BME280;25963;42.694;23.600;2022-07-03T00:43:16;95601.09;;;24.46;69.87
40245;BME280;25963;42.694;23.600;2022-07-03T00:45:49;95590.66;;;24.39;70.51
40245;BME280;25963;42.694;23.600;2022-07-03T00:48:16;95593.53;;;24.10;71.19
40245;BME280;25963;42.694;23.600;2022-07-03T00:50:52;95591.00;;;24.00;71.16
40245;BME280;25963;42.694;23.600;2022-07-03T00:53:28;95585.31;;;23.82;71.90
40245;BME280;25963;42.694;23.600;2022-07-03T00:55:55;95595.34;;;23.77;72.56
40245;BME280;25963;42.694;23.600;2022-07-03T00:58:21;95595.94;;;23.92;71.98
40245;BME280;25963;42.694;23.600;2022-07-03T01:00:50;95588.66;;;23.93;72.23
40245;BME280;25963;42.694;23.600;2022-07-03T01:03:17;95585.19;;;24.11;71.48
40245;BME280;25963;42.694;23.600;2022-07-03T01:05:45;95585.06;;;24.35;70.60
40245;BME280;25963;42.694;23.600;2022-07-03T01:08:49;95587.34;;;24.61;69.29
40245;BME280;25963;42.694;23.600;2022-07-03T01:11:25;95580.44;;;24.55;69.78
40245;BME280;25963;42.694;23.600;2022-07-03T01:21:41;95578.59;;;24.18;69.36
40245;BME280;25963;42.694;23.600;2022-07-03T01:26:51;95578.59;;;23.99;70.53
40245;BME280;25963;42.694;23.600;2022-07-03T01:29:29;95581.47;;;23.88;70.85
40245;BME280;25963;42.694;23.600;2022-07-03T01:31:57;95568.56;;;23.85;71.04
40245;BME280;25963;42.694;23.600;2022-07-03T01:34:25;95570.59;;;23.75;72.03
40245;BME280;25963;42.694;23.600;2022-07-03T01:36:54;95578.47;;;23.47;73.07
40245;BME280;25963;42.694;23.600;2022-07-03T01:39:26;95574.00;;;23.61;72.53
40245;BME280;25963;42.694;23.600;2022-07-03T01:41:53;95575.06;;;23.84;71.48
40245;BME280;25963;42.694;23.600;2022-07-03T01:44:23;95568.50;;;23.90;71.32
40245;BME280;25963;42.694;23.600;2022-07-03T01:46:52;95572.44;;;23.79;71.73
40245;BME280;25963;42.694;23.600;2022-07-03T01:49:19;95573.81;;;23.34;73.54
40245;BME280;25963;42.694;23.600;2022-07-03T01:51:48;95576.38;;;23.20;74.35
40245;BME280;25963;42.694;23.600;2022-07-03T01:54:17;95577.31;;;23.10;74.42
40245;BME280;25963;42.694;23.600;2022-07-03T01:56:43;95575.06;;;23.17;75.30
40245;BME280;25963;42.694;23.600;2022-07-03T01:59:10;95574.00;;;23.18;75.78
40245;BME280;25963;42.694;23.600;2022-07-03T02:01:48;95575.78;;;23.04;76.15
40245;BME280;25963;42.694;23.600;2022-07-03T02:04:52;95571.19;;;23.05;76.51
40245;BME280;25963;42.694;23.600;2022-07-03T02:10:10;95570.13;;;23.67;72.69
40245;BME280;25963;42.694;23.600;2022-07-03T02:12:49;95565.22;;;23.32;74.07
40245;BME280;25963;42.694;23.600;2022-07-03T02:15:35;95566.38;;;22.72;77.84
40245;BME280;25963;42.694;23.600;2022-07-03T02:18:11;95572.63;;;22.68;77.61
40245;BME280;25963;42.694;23.600;2022-07-03T02:20:46;95575.81;;;22.99;76.01
40245;BME280;25963;42.694;23.600;2022-07-03T02:23:20;95569.47;;;22.85;76.49
40245;BME280;25963;42.694;23.600;2022-07-03T02:25:50;95576.56;;;22.75;78.27
40245;BME280;25963;42.694;23.600;2022-07-03T02:28:34;95560.56;;;22.89;77.25
40245;BME280;25963;42.694;23.600;2022-07-03T02:31:05;95571.97;;;23.05;76.04
40245;BME280;25963;42.694;23.600;2022-07-03T02:33:36;95570.34;;;22.51;78.53
40245;BME280;25963;42.694;23.600;2022-07-03T02:36:05;95579.25;;;22.07;81.58
40245;BME280;25963;42.694;23.600;2022-07-03T02:38:30;95574.72;;;22.42;79.62
40245;BME280;25963;42.694;23.600;2022-07-03T02:41:03;95579.84;;;22.67;78.31
40245;BME280;25963;42.694;23.600;2022-07-03T02:46:45;95583.03;;;22.06;81.13
40245;BME280;25963;42.694;23.600;2022-07-03T02:49:38;95580.72;;;22.28;80.19
40245;BME280;25963;42.694;23.600;2022-07-03T02:52:40;95583.34;;;22.39;80.24
40245;BME280;25963;42.694;23.600;2022-07-03T03:00:58;95584.94;;;22.40;78.89
40245;BME280;25963;42.694;23.600;2022-07-03T03:03:27;95578.38;;;22.22;80.13
40245;BME280;25963;42.694;23.600;2022-07-03T03:05:56;95580.63;;;22.44;78.86
40245;BME280;25963;42.694;23.600;2022-07-03T03:08:59;95592.81;;;22.31;79.88
40245;BME280;25963;42.694;23.600;2022-07-03T03:11:44;95594.00;;;22.49;78.97
40245;BME280;25963;42.694;23.600;2022-07-03T03:14:15;95591.72;;;22.66;78.47
40245;BME280;25963;42.694;23.600;2022-07-03T03:16:52;95598.25;;;22.55;78.28
40245;BME280;25963;42.694;23.600;2022-07-03T03:19:22;95587.84;;;23.07;76.31
40245;BME280;25963;42.694;23.600;2022-07-03T03:22:05;95597.69;;;23.16;75.70
40245;BME280;25963;42.694;23.600;2022-07-03T03:24:34;95601.72;;;23.19;75.61
40245;BME280;25963;42.694;23.600;2022-07-03T03:27:00;95596.03;;;23.20;75.63
40245;BME280;25963;42.694;23.600;2022-07-03T03:29:27;95599.63;;;23.35;74.40
40245;BME280;25963;42.694;23.600;2022-07-03T03:31:52;95600.56;;;23.25;75.18
40245;BME280;25963;42.694;23.600;2022-07-03T03:34:18;95596.09;;;23.39;74.74
40245;BME280;25963;42.694;23.600;2022-07-03T03:36:44;95603.00;;;23.69;73.35
40245;BME280;25963;42.694;23.600;2022-07-03T03:39:09;95600.38;;;23.83;71.82
40245;BME280;25963;42.694;23.600;2022-07-03T03:41:35;95600.09;;;23.85;71.90
40245;BME280;25963;42.694;23.600;2022-07-03T03:44:00;95588.66;;;24.12;71.47
40245;BME280;25963;42.694;23.600;2022-07-03T03:46:26;95595.91;;;24.49;69.41
40245;BME280;25963;42.694;23.600;2022-07-03T03:48:51;95595.03;;;25.00;67.51
40245;BME280;25963;42.694;23.600;2022-07-03T03:51:17;95590.75;;;25.27;65.28
40245;BME280;25963;42.694;23.600;2022-07-03T03:53:42;95600.28;;;25.38;64.48
40245;BME280;25963;42.694;23.600;2022-07-03T03:56:10;95602.84;;;25.16;65.41
40245;BME280;25963;42.694;23.600;2022-07-03T03:58:38;95602.94;;;25.80;63.51
40245;BME280;25963;42.694;23.600;2022-07-03T04:01:05;95596.81;;;26.47;61.57
40245;BME280;25963;42.694;23.600;2022-07-03T04:03:32;95588.91;;;27.35;56.59
40245;BME280;25963;42.694;23.600;2022-07-03T04:05:57;95599.13;;;28.13;53.25
40245;BME280;25963;42.694;23.600;2022-07-03T04:08:24;95592.69;;;28.87;50.99
40245;BME280;25963;42.694;23.600;2022-07-03T04:10:50;95585.19;;;29.69;48.19
40245;BME280;25963;42.694;23.600;2022-07-03T04:13:16;95588.00;;;30.44;46.24
40245;BME280;25963;42.694;23.600;2022-07-03T04:15:42;95589.97;;;30.89;44.50
40245;BME280;25963;42.694;23.600;2022-07-03T04:18:08;95590.69;;;30.99;43.63
40245;BME280;25963;42.694;23.600;2022-07-03T04:20:34;95592.56;;;31.44;43.11
40245;BME280;25963;42.694;23.600;2022-07-03T04:22:59;95581.69;;;31.68;42.61
40245;BME280;25963;42.694;23.600;2022-07-03T04:25:25;95581.56;;;32.29;41.56
40245;BME280;25963;42.694;23.600;2022-07-03T04:27:51;95591.47;;;32.34;40.63
40245;BME280;25963;42.694;23.600;2022-07-03T04:30:17;95591.63;;;32.54;40.41
40245;BME280;25963;42.694;23.600;2022-07-03T04:32:42;95588.22;;;33.01;39.33
40245;BME280;25963;42.694;23.600;2022-07-03T04:35:08;95588.16;;;33.60;38.53
40245;BME280;25963;42.694;23.600;2022-07-03T04:37:34;95592.63;;;33.84;37.58
40245;BME280;25963;42.694;23.600;2022-07-03T04:40:00;95596.94;;;34.40;36.83
40245;BME280;25963;42.694;23.600;2022-07-03T04:42:26;95587.47;;;33.99;36.66
40245;BME280;25963;42.694;23.600;2022-07-03T04:44:51;95590.53;;;34.33;36.47
40245;BME280;25963;42.694;23.600;2022-07-03T04:47:16;95594.09;;;34.72;35.09
40245;BME280;25963;42.694;23.600;2022-07-03T04:49:42;95591.97;;;35.04;34.86
40245;BME280;25963;42.694;23.600;2022-07-03T04:52:08;95588.38;;;34.42;35.05
40245;BME280;25963;42.694;23.600;2022-07-03T04:54:33;95598.97;;;34.04;36.19
40245;BME280;25963;42.694;23.600;2022-07-03T04:56:59;95590.41;;;32.39;38.67
40245;BME280;25963;42.694;23.600;2022-07-03T04:59:24;95597.09;;;31.27;41.19
40245;BME280;25963;42.694;23.600;2022-07-03T05:01:50;95599.16;;;31.92;41.53
40245;BME280;25963;42.694;23.600;2022-07-03T05:04:16;95584.25;;;33.46;38.19
40245;BME280;25963;42.694;23.600;2022-07-03T05:06:42;95586.91;;;33.42;37.38
40245;BME280;25963;42.694;23.600;2022-07-03T05:09:07;95583.28;;;33.70;36.42
40245;BME280;25963;42.694;23.600;2022-07-03T05:11:33;95591.66;;;32.69;38.22
40245;BME280;25963;42.694;23.600;2022-07-03T05:13:58;95589.81;;;33.65;37.34
40245;BME280;25963;42.694;23.600;2022-07-03T05:16:24;95595.69;;;33.83;36.60
40245;BME280;25963;42.694;23.600;2022-07-03T05:18:50;95590.69;;;33.37;37.19
40245;BME280;25963;42.694;23.600;2022-07-03T05:21:15;95593.44;;;32.09;39.55
40245;BME280;25963;42.694;23.600;2022-07-03T05:23:41;95580.75;;;31.64;40.47
40245;BME280;25963;42.694;23.600;2022-07-03T05:26:06;95600.97;;;30.81;42.79
40245;BME280;25963;42.694;23.600;2022-07-03T05:28:32;95593.94;;;30.80;44.22
40245;BME280;25963;42.694;23.600;2022-07-03T05:30:57;95592.81;;;29.76;47.03
40245;BME280;25963;42.694;23.600;2022-07-03T05:33:23;95582.97;;;30.88;45.83
40245;BME280;25963;42.694;23.600;2022-07-03T05:35:48;95592.41;;;30.37;46.64
40245;BME280;25963;42.694;23.600;2022-07-03T05:38:13;95586.44;;;29.72;49.26
40245;BME280;25963;42.694;23.600;2022-07-03T05:40:59;95594.47;;;29.30;50.92
40245;BME280;25963;42.694;23.600;2022-07-03T05:43:24;95600.31;;;29.11;51.48
40245;BME280;25963;42.694;23.600;2022-07-03T05:45:50;95610.28;;;28.29;54.19
40245;BME280;25963;42.694;23.600;2022-07-03T05:48:15;95608.06;;;28.57;53.62
40245;BME280;25963;42.694;23.600;2022-07-03T05:50:40;95600.72;;;28.40;53.79
40245;BME280;25963;42.694;23.600;2022-07-03T05:53:06;95604.75;;;27.59;57.17
40245;BME280;25963;42.694;23.600;2022-07-03T05:55:31;95605.53;;;27.60;57.21
40245;BME280;25963;42.694;23.600;2022-07-03T06:00:32;95604.25;;;27.57;58.06
40245;BME280;25963;42.694;23.600;2022-07-03T06:02:58;95602.47;;;27.44;57.69
40245;BME280;25963;42.694;23.600;2022-07-03T06:05:23;95604.81;;;27.94;57.13
40245;BME280;25963;42.694;23.600;2022-07-03T06:07:48;95596.53;;;27.82;56.97
40245;BME280;25963;42.694;23.600;2022-07-03T06:10:15;95613.91;;;27.81;57.36
40245;BME280;25963;42.694;23.600;2022-07-03T06:12:40;95609.53;;;27.62;58.03
40245;BME280;25963;42.694;23.600;2022-07-03T06:15:06;95600.97;;;27.77;58.56
40245;BME280;25963;42.694;23.600;2022-07-03T06:17:34;95594.63;;;27.91;58.65
40245;BME280;25963;42.694;23.600;2022-07-03T06:20:00;95616.03;;;28.10;57.65
40245;BME280;25963;42.694;23.600;2022-07-03T06:22:25;95604.38;;;28.27;56.95
40245;BME280;25963;42.694;23.600;2022-07-03T06:24:51;95607.91;;;28.27;55.88
40245;BME280;25963;42.694;23.600;2022-07-03T06:27:16;95603.03;;;27.72;57.70
40245;BME280;25963;42.694;23.600;2022-07-03T06:29:42;95606.97;;;27.57;59.06
40245;BME280;25963;42.694;23.600;2022-07-03T06:32:07;95594.81;;;27.94;57.68
40245;BME280;25963;42.694;23.600;2022-07-03T06:34:33;95579.81;;;28.23;56.10
40245;BME280;25963;42.694;23.600;2022-07-03T06:36:58;95587.78;;;28.37;55.67
40245;BME280;25963;42.694;23.600;2022-07-03T06:39:24;95607.91;;;28.53;54.79
40245;BME280;25963;42.694;23.600;2022-07-03T06:41:49;95597.22;;;28.39;56.87
40245;BME280;25963;42.694;23.600;2022-07-03T06:44:14;95607.06;;;28.79;53.47
40245;BME280;25963;42.694;23.600;2022-07-03T06:46:40;95585.50;;;28.74;52.56
40245;BME280;25963;42.694;23.600;2022-07-03T06:49:05;95591.75;;;28.65;51.96
40245;BME280;25963;42.694;23.600;2022-07-03T06:51:31;95590.13;;;29.67;50.90
40245;BME280;25963;42.694;23.600;2022-07-03T06:53:59;95590.09;;;30.60;48.29
40245;BME280;25963;42.694;23.600;2022-07-03T06:56:25;95588.59;;;30.83;45.73
40245;BME280;25963;42.694;23.600;2022-07-03T06:58:50;95592.72;;;30.89;45.06
40245;BME280;25963;42.694;23.600;2022-07-03T07:01:16;95569.63;;;31.69;43.64
40245;BME280;25963;42.694;23.600;2022-07-03T07:03:41;95573.16;;;31.57;43.46
40245;BME280;25963;42.694;23.600;2022-07-03T07:06:07;95589.50;;;31.70;41.79
40245;BME280;25963;42.694;23.600;2022-07-03T07:08:34;95580.97;;;31.22;43.80
40245;BME280;25963;42.694;23.600;2022-07-03T07:11:00;95598.25;;;31.26;44.72
40245;BME280;25963;42.694;23.600;2022-07-03T07:13:25;95594.84;;;31.29;44.74
40245;BME280;25963;42.694;23.600;2022-07-03T07:15:51;95584.84;;;31.33;44.96
40245;BME280;25963;42.694;23.600;2022-07-03T07:18:18;95586.31;;;31.31;45.96
40245;BME280;25963;42.694;23.600;2022-07-03T07:20:43;95589.59;;;31.12;44.00
40245;BME280;25963;42.694;23.600;2022-07-03T07:23:08;95578.63;;;31.57;44.14
40245;BME280;25963;42.694;23.600;2022-07-03T07:25:34;95593.50;;;31.60;44.18
40245;BME280;25963;42.694;23.600;2022-07-03T07:27:59;95590.31;;;31.58;44.20
40245;BME280;25963;42.694;23.600;2022-07-03T07:30:25;95572.53;;;31.89;41.32
40245;BME280;25963;42.694;23.600;2022-07-03T07:32:50;95590.13;;;32.28;41.77
40245;BME280;25963;42.694;23.600;2022-07-03T07:35:16;95562.78;;;32.00;43.66
40245;BME280;25963;42.694;23.600;2022-07-03T07:37:42;95582.03;;;32.32;41.87
40245;BME280;25963;42.694;23.600;2022-07-03T07:40:08;95583.44;;;32.13;40.45
40245;BME280;25963;42.694;23.600;2022-07-03T07:42:33;95573.50;;;31.93;41.75
40245;BME280;25963;42.694;23.600;2022-07-03T07:44:59;95580.22;;;32.23;42.56
40245;BME280;25963;42.694;23.600;2022-07-03T07:47:24;95571.50;;;32.90;40.69
40245;BME280;25963;42.694;23.600;2022-07-03T07:49:50;95555.19;;;32.78;39.96
40245;BME280;25963;42.694;23.600;2022-07-03T07:52:15;95550.84;;;33.36;41.87
40245;BME280;25963;42.694;23.600;2022-07-03T07:54:41;95556.53;;;33.79;40.94
40245;BME280;25963;42.694;23.600;2022-07-03T07:57:07;95559.97;;;33.76;37.68
40245;BME280;25963;42.694;23.600;2022-07-03T07:59:32;95569.97;;;33.36;39.78
40245;BME280;25963;42.694;23.600;2022-07-03T08:01:58;95561.69;;;33.01;39.44
40245;BME280;25963;42.694;23.600;2022-07-03T08:04:42;95562.31;;;33.58;39.87
40245;BME280;25963;42.694;23.600;2022-07-03T08:07:26;95557.66;;;34.13;38.26
40245;BME280;25963;42.694;23.600;2022-07-03T08:09:51;95550.09;;;34.06;35.68
40245;BME280;25963;42.694;23.600;2022-07-03T08:12:19;95560.31;;;34.87;36.00
40245;BME280;25963;42.694;23.600;2022-07-03T08:14:45;95558.00;;;34.89;36.78
40245;BME280;25963;42.694;23.600;2022-07-03T08:17:10;95553.03;;;34.75;34.67
40245;BME280;25963;42.694;23.600;2022-07-03T08:19:36;95543.69;;;34.18;34.66
40245;BME280;25963;42.694;23.600;2022-07-03T08:22:01;95551.97;;;34.22;36.49
40245;BME280;25963;42.694;23.600;2022-07-03T08:24:27;95562.31;;;34.67;38.15
40245;BME280;25963;42.694;23.600;2022-07-03T08:26:53;95563.53;;;34.12;36.01
40245;BME280;25963;42.694;23.600;2022-07-03T08:29:18;95554.81;;;33.90;36.21
40245;BME280;25963;42.694;23.600;2022-07-03T08:31:44;95556.13;;;33.96;36.41
40245;BME280;25963;42.694;23.600;2022-07-03T08:34:09;95549.78;;;34.89;33.78
40245;BME280;25963;42.694;23.600;2022-07-03T08:36:42;95553.38;;;35.39;34.32
40245;BME280;25963;42.694;23.600;2022-07-03T08:39:08;95552.72;;;35.23;33.60
40245;BME280;25963;42.694;23.600;2022-07-03T08:41:36;95552.94;;;34.29;33.71
40245;BME280;25963;42.694;23.600;2022-07-03T08:44:02;95550.66;;;33.61;34.43
40245;BME280;25963;42.694;23.600;2022-07-03T08:46:31;95560.16;;;34.02;34.61
40245;BME280;25963;42.694;23.600;2022-07-03T08:48:59;95544.41;;;33.60;35.49
40245;BME280;25963;42.694;23.600;2022-07-03T08:51:26;95536.66;;;34.17;33.81
40245;BME280;25963;42.694;23.600;2022-07-03T08:53:53;95543.53;;;35.12;34.76
40245;BME280;25963;42.694;23.600;2022-07-03T08:56:22;95539.34;;;35.67;32.77
40245;BME280;25963;42.694;23.600;2022-07-03T08:58:48;95530.50;;;36.08;32.03
40245;BME280;25963;42.694;23.600;2022-07-03T09:01:18;95554.97;;;35.40;29.22
40245;BME280;25963;42.694;23.600;2022-07-03T09:03:45;95539.84;;;36.03;29.25
40245;BME280;25963;42.694;23.600;2022-07-03T09:06:14;95532.75;;;36.32;28.21
40245;BME280;25963;42.694;23.600;2022-07-03T09:08:40;95538.31;;;35.79;28.54
40245;BME280;25963;42.694;23.600;2022-07-03T09:11:06;95539.59;;;36.16;31.90
40245;BME280;25963;42.694;23.600;2022-07-03T09:13:32;95556.75;;;36.39;29.79
40245;BME280;25963;42.694;23.600;2022-07-03T09:15:58;95554.19;;;35.40;29.30
40245;BME280;25963;42.694;23.600;2022-07-03T09:18:49;95555.59;;;34.65;28.83
40245;BME280;25963;42.694;23.600;2022-07-03T09:21:16;95531.47;;;35.16;28.78
40245;BME280;25963;42.694;23.600;2022-07-03T09:23:43;95527.09;;;35.38;29.04
40245;BME280;25963;42.694;23.600;2022-07-03T09:26:17;95536.13;;;35.92;28.85
40245;BME280;25963;42.694;23.600;2022-07-03T09:28:50;95549.75;;;36.79;28.34
40245;BME280;25963;42.694;23.600;2022-07-03T09:31:23;95527.56;;;36.58;28.12
40245;BME280;25963;42.694;23.600;2022-07-03T09:36:37;95517.03;;;36.29;26.48
40245;BME280;25963;42.694;23.600;2022-07-03T09:47:16;95532.19;;;35.89;27.90
40245;BME280;25963;42.694;23.600;2022-07-03T09:50:01;95511.16;;;36.01;29.54
40245;BME280;25963;42.694;23.600;2022-07-03T09:52:37;95533.66;;;36.44;28.55
40245;BME280;25963;42.694;23.600;2022-07-03T09:57:41;95507.59;;;35.43;27.47
40245;BME280;25963;42.694;23.600;2022-07-03T10:00:18;95509.19;;;35.44;27.63
40245;BME280;25963;42.694;23.600;2022-07-03T10:02:58;95518.22;;;36.02;28.59
40245;BME280;25963;42.694;23.600;2022-07-03T10:05:37;95516.28;;;35.22;28.63
40245;BME280;25963;42.694;23.600;2022-07-03T10:08:05;95500.13;;;35.67;30.68
40245;BME280;25963;42.694;23.600;2022-07-03T10:10:33;95517.06;;;35.46;29.77
40245;BME280;25963;42.694;23.600;2022-07-03T10:13:00;95509.31;;;35.78;31.10
40245;BME280;25963;42.694;23.600;2022-07-03T10:15:27;95496.63;;;35.17;31.95
40245;BME280;25963;42.694;23.600;2022-07-03T10:17:55;95500.84;;;35.11;31.51
40245;BME280;25963;42.694;23.600;2022-07-03T10:22:58;95489.00;;;35.56;29.66
40245;BME280;25963;42.694;23.600;2022-07-03T10:25:24;95481.94;;;35.85;30.17
40245;BME280;25963;42.694;23.600;2022-07-03T10:27:50;95482.13;;;36.00;29.10
40245;BME280;25963;42.694;23.600;2022-07-03T10:30:19;95484.44;;;36.28;29.11
40245;BME280;25963;42.694;23.600;2022-07-03T10:32:47;95477.50;;;37.19;30.51
40245;BME280;25963;42.694;23.600;2022-07-03T10:35:15;95480.97;;;36.34;26.69
40245;BME280;25963;42.694;23.600;2022-07-03T10:43:28;95480.13;;;37.05;26.97
40245;BME280;25963;42.694;23.600;2022-07-03T10:46:16;95458.91;;;37.02;26.04
40245;BME280;25963;42.694;23.600;2022-07-03T10:51:28;95471.56;;;36.32;27.72
40245;BME280;25963;42.694;23.600;2022-07-03T11:05:06;95460.66;;;36.80;25.55
40245;BME280;25963;42.694;23.600;2022-07-03T11:07:43;95446.50;;;37.26;26.25
40245;BME280;25963;42.694;23.600;2022-07-03T11:13:07;95450.91;;;37.41;25.83
40245;BME280;25963;42.694;23.600;2022-07-03T11:15:39;95429.66;;;37.31;24.17
40245;BME280;25963;42.694;23.600;2022-07-03T11:25:42;95432.19;;;39.02;25.90
40245;BME280;25963;42.694;23.600;2022-07-03T11:28:08;95402.22;;;38.97;24.87
40245;BME280;25963;42.694;23.600;2022-07-03T11:38:47;95414.41;;;37.48;25.46
40245;BME280;25963;42.694;23.600;2022-07-03T11:41:14;95401.09;;;37.57;24.96
40245;BME280;25963;42.694;23.600;2022-07-03T11:43:50;95412.66;;;37.18;26.06
40245;BME280;25963;42.694;23.600;2022-07-03T11:46:20;95412.31;;;36.72;25.65
40245;BME280;25963;42.694;23.600;2022-07-03T11:48:46;95425.78;;;36.47;28.51
40245;BME280;25963;42.694;23.600;2022-07-03T11:51:12;95413.78;;;36.62;26.28
40245;BME280;25963;42.694;23.600;2022-07-03T11:53:38;95405.09;;;36.53;26.81
40245;BME280;25963;42.694;23.600;2022-07-03T11:56:10;95409.78;;;36.15;27.22
40245;BME280;25963;42.694;23.600;2022-07-03T11:58:47;95411.78;;;36.18;27.55
40245;BME280;25963;42.694;23.600;2022-07-03T12:06:50;95409.28;;;36.06;26.14
40245;BME280;25963;42.694;23.600;2022-07-03T12:09:20;95408.38;;;35.64;28.26
40245;BME280;25963;42.694;23.600;2022-07-03T12:14:51;95417.41;;;35.65;28.64
40245;BME280;25963;42.694;23.600;2022-07-03T12:17:25;95400.41;;;34.76;29.86
40245;BME280;25963;42.694;23.600;2022-07-03T12:19:51;95410.81;;;34.67;31.00
40245;BME280;25963;42.694;23.600;2022-07-03T12:22:33;95402.41;;;34.79;31.79
40245;BME280;25963;42.694;23.600;2022-07-03T12:25:12;95401.06;;;34.23;33.45
40245;BME280;25963;42.694;23.600;2022-07-03T12:27:42;95405.53;;;34.54;34.17
40245;BME280;25963;42.694;23.600;2022-07-03T12:30:12;95414.53;;;34.32;35.88
40245;BME280;25963;42.694;23.600;2022-07-03T12:32:38;95408.34;;;33.77;36.73
40245;BME280;25963;42.694;23.600;2022-07-03T12:35:05;95417.16;;;33.31;38.26
40245;BME280;25963;42.694;23.600;2022-07-03T12:37:35;95421.38;;;33.09;38.54
40245;BME280;25963;42.694;23.600;2022-07-03T12:40:02;95418.72;;;33.32;38.02
40245;BME280;25963;42.694;23.600;2022-07-03T12:42:28;95390.25;;;32.66;39.15
40245;BME280;25963;42.694;23.600;2022-07-03T12:45:03;95419.03;;;33.11;39.92
40245;BME280;25963;42.694;23.600;2022-07-03T12:47:30;95427.88;;;32.57;39.82
40245;BME280;25963;42.694;23.600;2022-07-03T12:50:04;95425.81;;;32.38;40.43
40245;BME280;25963;42.694;23.600;2022-07-03T12:52:32;95413.06;;;32.90;39.62
40245;BME280;25963;42.694;23.600;2022-07-03T12:54:59;95418.13;;;32.88;40.43
40245;BME280;25963;42.694;23.600;2022-07-03T12:57:24;95403.63;;;32.87;39.66
40245;BME280;25963;42.694;23.600;2022-07-03T13:00:13;95406.13;;;32.61;39.39
40245;BME280;25963;42.694;23.600;2022-07-03T13:02:44;95417.03;;;32.45;40.08
40245;BME280;25963;42.694;23.600;2022-07-03T13:05:16;95408.22;;;32.83;39.41
40245;BME280;25963;42.694;23.600;2022-07-03T13:07:43;95395.97;;;32.29;40.53
40245;BME280;25963;42.694;23.600;2022-07-03T13:10:09;95393.41;;;32.37;41.60
40245;BME280;25963;42.694;23.600;2022-07-03T13:12:45;95390.28;;;32.82;39.67
40245;BME280;25963;42.694;23.600;2022-07-03T13:15:11;95398.47;;;32.50;38.84
40245;BME280;25963;42.694;23.600;2022-07-03T13:20:30;95394.34;;;33.24;37.23
40245;BME280;25963;42.694;23.600;2022-07-03T13:22:58;95382.47;;;33.51;37.79
40245;BME280;25963;42.694;23.600;2022-07-03T13:25:24;95389.78;;;34.05;36.68
40245;BME280;25963;42.694;23.600;2022-07-03T13:27:50;95390.00;;;33.03;35.13
40245;BME280;25963;42.694;23.600;2022-07-03T13:30:17;95371.00;;;33.65;34.80
40245;BME280;25963;42.694;23.600;2022-07-03T13:32:43;95396.69;;;33.99;35.07
40245;BME280;25963;42.694;23.600;2022-07-03T13:35:09;95395.22;;;34.48;32.89
40245;BME280;25963;42.694;23.600;2022-07-03T13:37:36;95384.22;;;34.44;33.03
40245;BME280;25963;42.694;23.600;2022-07-03T13:40:04;95398.16;;;33.93;35.60
40245;BME280;25963;42.694;23.600;2022-07-03T13:42:30;95387.31;;;34.43;32.67
40245;BME280;25963;42.694;23.600;2022-07-03T13:44:56;95380.63;;;34.40;33.13
40245;BME280;25963;42.694;23.600;2022-07-03T13:47:21;95393.34;;;34.52;32.97
40245;BME280;25963;42.694;23.600;2022-07-03T13:49:47;95384.50;;;34.59;32.73
40245;BME280;25963;42.694;23.600;2022-07-03T13:52:12;95390.25;;;34.07;33.27
40245;BME280;25963;42.694;23.600;2022-07-03T13:54:38;95382.19;;;33.40;32.91
40245;BME280;25963;42.694;23.600;2022-07-03T13:57:04;95375.69;;;33.64;34.10
40245;BME280;25963;42.694;23.600;2022-07-03T13:59:29;95373.41;;;33.31;34.23
40245;BME280;25963;42.694;23.600;2022-07-03T14:01:56;95370.25;;;33.29;34.41
40245;BME280;25963;42.694;23.600;2022-07-03T14:04:22;95356.72;;;33.17;34.99
40245;BME280;25963;42.694;23.600;2022-07-03T14:06:47;95364.97;;;33.01;37.20
40245;BME280;25963;42.694;23.600;2022-07-03T14:09:13;95379.03;;;33.38;37.54
40245;BME280;25963;42.694;23.600;2022-07-03T14:11:38;95345.50;;;33.22;38.11
40245;BME280;25963;42.694;23.600;2022-07-03T14:14:04;95353.50;;;33.89;37.95
40245;BME280;25963;42.694;23.600;2022-07-03T14:16:29;95337.28;;;33.80;38.76
40245;BME280;25963;42.694;23.600;2022-07-03T14:18:55;95353.69;;;33.57;37.87
40245;BME280;25963;42.694;23.600;2022-07-03T14:21:20;95354.41;;;33.54;38.02
40245;BME280;25963;42.694;23.600;2022-07-03T14:23:45;95351.78;;;33.42;40.28
40245;BME280;25963;42.694;23.600;2022-07-03T14:26:11;95361.41;;;33.94;38.27
40245;BME280;25963;42.694;23.600;2022-07-03T14:28:36;95337.28;;;34.00;38.43